Data for 09/01/2010

Time Sea-Level Adjusted Pressure Absolute Pressure Temperature Relative Humidity Dew Point   
(mb) (inHg) (mb) (inHg) (C) (F) (%) (C) (F)
00:05 1017 30.03 846 24.98 9.9 49.8 69 4.4 39.9
00:10 1017 30.03 846 24.98 10.2 50.3 63 3.6 38.5
00:15 1017 30.03 846 24.98 10.7 51.3 64 4.4 39.8
00:20 1017 30.03 846 24.98 10.6 51 61 3.5 38.2
00:25 1017 30.03 846 24.98 10.9 51.6 60 3.6 38.4
00:30 1017 30.03 846 24.98 10.9 51.6 64 4.5 40.1
00:35 1017 30.03 846 24.98 10.6 51.1 67 4.8 40.7
00:40 1017 30.03 846 24.98 10.5 50.8 66 4.4 40
00:45 1017 30.03 846 24.98 10.3 50.5 67 4.5 40.1
00:50 1017 30.03 846 24.98 10.3 50.5 68 4.6 40.3
00:55 1017 30.03 846 24.98 10.1 50.2 68 4.6 40.3
01:00 1017 30.03 846 24.98 9.9 49.8 69 4.6 40.3
01:05 1017 30.03 846 24.98 9.9 49.8 70 4.7 40.5
01:10 1017 30.03 846 24.98 9.8 49.6 70 4.7 40.4
01:15 1017 30.03 846 24.98 9.6 49.4 70 4.5 40.1
01:20 1017 30.03 846 24.98 9.8 49.7 65 3.6 38.6
01:25 1017 30.03 846 24.98 10.5 50.8 63 3.8 38.8
01:30 1017 30.03 846 24.98 11.1 51.9 58 3.1 37.6
01:35 1017 30.03 846 24.98 11.4 52.6 60 3.9 39.1
01:40 1017 30.03 846 24.98 11.4 52.5 60 3.9 38.9
01:45 1017 30.03 846 24.98 11.3 52.4 61 4 39.2
01:50 1017 30.03 846 24.98 11.2 52.1 66 5.1 41.1
01:55 1017 30.03 846 24.98 10.5 50.9 69 5 41.1
02:00 1017 30.03 846 24.98 10.4 50.7 66 4.4 39.8
02:05 1017 30.03 846 24.98 10.8 51.4 67 4.8 40.7
02:10 1017 30.03 846 24.98 10.7 51.3 67 4.8 40.6
02:15 1017 30.03 846 24.98 10.8 51.4 70 5.5 41.9
02:20 1017 30.03 846 24.98 11.2 52.1 61 4 39.1
02:25 1017 30.03 846 24.98 11.4 52.5 61 4.2 39.5
02:30 1017 30.03 846 24.98 11.2 52.2 66 5.2 41.4
02:35 1016 30 846 24.98 10.9 51.7 66 5 40.9
02:40 1016 30 846 24.98 10.9 51.6 66 4.7 40.5
02:45 1016 30 846 24.98 10.9 51.5 77 7 44.5
02:50 1016 30 846 24.98 10 50 78 6.4 43.5
02:55 1016 30 846 24.98 9.6 49.2 72 4.9 40.8
03:00 1016 30 846 24.98 9.8 49.7 74 5.5 41.8
03:05 1016 30 846 24.98 9.9 49.8 75 5.7 42.3
03:10 1016 30 846 24.98 9.8 49.7 69 4.5 40.1
03:15 1016 30 845 24.95 9.9 49.7 77 6.1 43
03:20 1016 30 845 24.95 9.5 49 75 5.3 41.5
03:25 1016 30 845 24.95 9.4 49 73 4.9 40.8
03:30 1016 30 845 24.95 9.6 49.3 76 5.5 42
03:35 1016 30 845 24.95 9.7 49.4 71 4.8 40.6
03:40 1016 30 845 24.95 9.8 49.6 74 5.3 41.6
03:45 1016 30 845 24.95 9.5 49.1 77 5.8 42.4
03:50 1016 30 845 24.95 9.3 48.8 78 5.7 42.3
03:55 1016 30 845 24.95 9.2 48.6 78 5.5 42
04:00 1016 30 845 24.95 9.2 48.5 80 5.9 42.7
04:05 1016 30 845 24.95 9 48.1 81 6 42.7
04:10 1016 30 845 24.95 8.9 48 81 5.9 42.5
04:15 1016 30 845 24.95 8.8 47.9 83 6.1 43
04:20 1016 30 845 24.95 8.8 47.8 84 6.2 43.2
04:25 1015 29.97 845 24.95 8.6 47.5 87 6.5 43.8
04:30 1015 29.97 845 24.95 8.4 47.2 87 6.5 43.7
04:35 1015 29.97 845 24.95 8.4 47.1 87 6.4 43.5
04:40 1015 29.97 844 24.92 8.3 47 88 6.4 43.6
04:45 1015 29.97 845 24.95 8.3 47 87 6.3 43.4
04:50 1015 29.97 845 24.95 8.4 47.1 87 6.3 43.3
04:55 1015 29.97 845 24.95 8.7 47.6 79 5.2 41.4
05:00 1015 29.97 845 24.95 9.4 48.9 73 4.8 40.6
05:05 1015 29.97 845 24.95 10.2 50.3 71 5.1 41.2
05:10 1015 29.97 845 24.95 10.3 50.5 65 4 39.2
05:15 1015 29.97 844 24.92 11.7 53 56 3.2 37.8
05:20 1015 29.97 844 24.92 12.1 53.8 52 2.5 36.5
05:25 1015 29.97 844 24.92 12.1 53.8 56 3.7 38.7
05:30 1015 29.97 844 24.92 11.7 53 62 4.8 40.6
05:35 1015 29.97 844 24.92 11.2 52.2 62 4.3 39.7
05:40 1015 29.97 844 24.92 11.1 51.9 69 5.6 42.1
05:45 1015 29.97 844 24.92 10.3 50.5 72 5.6 42
05:50 1015 29.97 844 24.92 10 50 73 5.4 41.7
05:55 1015 29.97 844 24.92 10 49.9 72 5.2 41.3
06:00 1015 29.97 844 24.92 9.9 49.8 75 5.8 42.4
06:05 1015 29.97 844 24.92 9.8 49.6 78 6.1 43
06:10 1015 29.97 844 24.92 9.5 49.1 78 6 42.7
06:15 1015 29.97 844 24.92 9.3 48.7 81 6.1 43
06:20 1015 29.97 844 24.92 9 48.2 81 6 42.8
06:25 1015 29.97 844 24.92 9 48.1 82 6 42.8
06:30 1015 29.97 844 24.92 9 48.2 81 6 42.7
06:35 1015 29.97 844 24.92 9.2 48.6 81 6.1 43.1
06:40 1015 29.97 844 24.92 9.4 48.9 76 5.4 41.7
06:45 1015 29.97 844 24.92 9.8 49.6 75 5.7 42.2
06:50 1015 29.97 844 24.92 9.9 49.8 64 3.3 38
06:55 1015 29.97 844 24.92 10.9 51.6 65 4.6 40.2
07:00 1015 29.97 844 24.92 11 51.8 62 4.1 39.4
07:05 1015 29.97 844 24.92 11.1 52 63 4.4 39.9
07:10 1015 29.97 844 24.92 11 51.8 67 5.1 41.2
07:15 1015 29.97 844 24.92 10.7 51.2 69 5.2 41.4
07:20 1015 29.97 844 24.92 10.5 51 69 5.1 41.3
07:25 1015 29.97 844 24.92 10.6 51.1 66 4.5 40.1
07:30 1015 29.97 844 24.92 10.7 51.2 67 4.8 40.6
07:35 1015 29.97 844 24.92 10.7 51.3 67 5 40.9
07:40 1015 29.97 844 24.92 10.7 51.2 65 4.3 39.8
07:45 1015 29.97 844 24.92 11.1 51.9 62 4.2 39.5
07:50 1015 29.97 844 24.92 11.1 52 63 4.5 40.1
07:55 1015 29.97 844 24.92 11.1 51.9 64 4.6 40.3
08:00 1015 29.97 844 24.92 11 51.8 66 4.9 40.7
08:05 1015 29.97 844 24.92 11 51.8 65 4.7 40.5
08:10 1015 29.97 844 24.92 10.9 51.7 66 4.9 40.8
08:15 1015 29.97 844 24.92 10.9 51.6 65 4.7 40.4
08:20 1015 29.97 844 24.92 11 51.8 65 4.7 40.4
08:25 1015 29.97 844 24.92 11.2 52.1 63 4.5 40.1
08:30 1015 29.97 844 24.92 11.4 52.5 62 4.5 40.1
08:35 1015 29.97 844 24.92 11.4 52.5 63 4.7 40.5
08:40 1015 29.97 844 24.92 11.4 52.4 63 4.6 40.3
08:45 1015 29.97 844 24.92 11.4 52.5 64 4.9 40.7
08:50 1015 29.97 844 24.92 11.4 52.5 60 3.8 38.9
08:55 1015 29.97 844 24.92 11.8 53.3 60 4.4 39.9
09:00 1015 29.97 844 24.92 12 53.5 57 3.8 38.9
09:05 1015 29.97 844 24.92 12.1 53.9 57 4 39.2
09:10 1015 29.97 844 24.92 12.3 54.1 55 3.7 38.6
09:15 1015 29.97 844 24.92 12.4 54.2 56 3.9 39
09:20 1015 29.97 845 24.95 12.4 54.2 57 4.1 39.3
09:25 1015 29.97 845 24.95 12.3 54.1 57 4 39.2
09:30 1015 29.97 845 24.95 12.4 54.3 58 4.4 39.9
09:35 1015 29.97 845 24.95 12.4 54.2 57 4.2 39.5
09:40 1015 29.97 845 24.95 12.4 54.3 57 4 39.3
09:45 1016 30 845 24.95 12.5 54.4 56 4 39.2
09:50 1016 30 845 24.95 12.5 54.4 57 4.1 39.4
09:55 1016 30 845 24.95 12.5 54.4 58 4.5 40.1
10:00 1016 30 845 24.95 12.6 54.6 60 4.9 40.9
10:05 1016 30 845 24.95 12.6 54.7 60 5.2 41.4
10:10 1016 30 845 24.95 12.7 54.9 60 5.3 41.5
10:15 1016 30 845 24.95 12.7 54.8 59 4.8 40.7
10:20 1016 30 845 24.95 12.7 54.8 57 4.5 40.1
10:25 1016 30 845 24.95 12.8 55.1 57 4.7 40.4
10:30 1016 30 845 24.95 13 55.4 57 4.8 40.6
10:35 1016 30 845 24.95 13 55.4 58 5 41
10:40 1016 30 845 24.95 12.9 55.2 60 5.4 41.6
10:45 1016 30 845 24.95 12.9 55.2 61 5.6 42.1
10:50 1016 30 845 24.95 12.8 55.1 62 5.7 42.3
10:55 1016 30 845 24.95 13 55.4 59 5.3 41.5
11:00 1016 30 845 24.95 12.9 55.2 59 5.1 41.1
11:05 1016 30 845 24.95 13.1 55.5 59 5.3 41.5
11:10 1016 30 845 24.95 13.1 55.7 58 5.1 41.1
11:15 1016 30 845 24.95 13.4 56 56 4.9 40.8
11:20 1016 30 845 24.95 13.1 55.6 57 4.9 40.8
11:25 1016 30 845 24.95 13.1 55.5 58 5.1 41.2
11:30 1016 30 845 24.95 13.4 56 58 5.4 41.7
11:35 1016 30 845 24.95 13.6 56.6 56 5.2 41.3
11:40 1016 30 845 24.95 13.5 56.4 60 6 42.8
11:45 1016 30 845 24.95 13.4 56.1 63 6.5 43.7
11:50 1016 30 845 24.95 13.5 56.3 54 4.4 39.9
11:55 1016 30 845 24.95 14 57.2 57 5.8 42.4
12:00 1016 30 845 24.95 14.7 58.5 54 5.5 41.9
12:05 1016 30 845 24.95 15.1 59.1 56 6.3 43.4
12:10 1016 30 845 24.95 15.3 59.5 51 5.3 41.5
12:15 1016 30 845 24.95 15.5 59.8 52 5.8 42.4
12:20 1016 30 845 24.95 15.3 59.5 53 5.9 42.6
12:25 1016 30 845 24.95 15.2 59.4 55 6.4 43.6
12:30 1016 30 845 24.95 15.3 59.6 53 5.8 42.4
12:35 1016 30 845 24.95 15.3 59.5 52 5.6 42.1
12:40 1016 30 845 24.95 15.2 59.4 53 5.7 42.3
12:45 1016 30 845 24.95 15.1 59.1 56 6.5 43.8
12:50 1016 30 845 24.95 14.8 58.7 56 6.1 43
12:55 1016 30 845 24.95 14.5 58.2 53 5.3 41.5
13:00 1016 30 845 24.95 14.4 57.9 55 5.5 41.9
13:05 1016 30 845 24.95 14.4 57.9 54 5.4 41.6
13:10 1015 29.97 845 24.95 15 59.1 51 5.1 41.2
13:15 1015 29.97 845 24.95 16 60.7 47 4.6 40.3
13:20 1015 29.97 844 24.92 16.4 61.5 47 5 41
13:25 1015 29.97 844 24.92 16.5 61.6 47 5.3 41.5
13:30 1015 29.97 844 24.92 16.5 61.6 46 5 41
13:35 1015 29.97 844 24.92 15.8 60.5 47 4.7 40.4
13:40 1015 29.97 844 24.92 15.9 60.6 49 5.3 41.6
13:45 1015 29.97 844 24.92 16.7 62 48 5.7 42.2
13:50 1015 29.97 844 24.92 16.5 61.6 46 5 41
13:55 1015 29.97 844 24.92 16 60.9 49 5.3 41.6
14:00 1015 29.97 844 24.92 15.6 60.1 53 6.1 42.9
14:05 1015 29.97 845 24.95 14.8 58.7 61 7.4 45.2
14:10 1015 29.97 845 24.95 13.8 56.8 64 7.2 45
14:15 1016 30 845 24.95 14.3 57.8 60 6.8 44.3
14:20 1016 30 845 24.95 13.6 56.5 64 6.9 44.4
14:25 1015 29.97 845 24.95 13.7 56.6 62 6.7 44
14:30 1015 29.97 845 24.95 14 57.2 57 5.6 42
14:35 1015 29.97 844 24.92 14.1 57.3 58 6 42.8
14:40 1015 29.97 844 24.92 14.4 57.9 56 5.9 42.6
14:45 1016 30 845 24.95 14.9 58.8 59 6.9 44.5
14:50 1016 30 845 24.95 14.4 57.8 61 7.1 44.8
14:55 1015 29.97 845 24.95 14.2 57.5 61 6.9 44.4
15:00 1015 29.97 845 24.95 13.9 56.9 64 7.2 44.9
15:05 1015 29.97 845 24.95 13.7 56.7 65 7.4 45.3
15:10 1016 30 845 24.95 13.4 56.2 70 8.2 46.7
15:15 1016 30 845 24.95 13.5 56.4 68 7.9 46.2
15:20 1015 29.97 845 24.95 13.8 56.8 71 8.7 47.7
15:25 1016 30 845 24.95 14.6 58.3 68 8.8 47.8
15:30 1016 30 845 24.95 14.9 58.8 65 8.4 47.1
15:35 1015 29.97 845 24.95 15.7 60.3 63 8.7 47.7
15:40 1015 29.97 845 24.95 16.2 61.1 60 8.6 47.4
15:45 1015 29.97 844 24.92 16 60.8 53 6.7 44
15:50 1015 29.97 844 24.92 15.8 60.4 53 6.3 43.3
15:55 1015 29.97 845 24.95 15.9 60.5 55 6.8 44.3
16:00 1015 29.97 845 24.95 16 60.8 54 6.7 44
16:05 1015 29.97 845 24.95 16.9 62.4 47 5.6 42.1
16:10 1015 29.97 845 24.95 17 62.5 45 5 41
16:15 1015 29.97 845 24.95 16.9 62.5 43 4.5 40.1
16:20 1015 29.97 845 24.95 17.1 62.7 42 4.3 39.7
16:25 1015 29.97 845 24.95 17.2 63 42 4.2 39.6
16:30 1015 29.97 844 24.92 18.2 64.7 30 0.6 33.1
16:35 1015 29.97 845 24.95 18.8 65.8 35 3.2 37.8
16:40 1015 29.97 845 24.95 18.5 65.3 35 2.8 37.1
16:45 1015 29.97 845 24.95 18.2 64.8 35 2.6 36.7
16:50 1016 30 845 24.95 18.1 64.7 35 2.5 36.5
16:55 1016 30 845 24.95 17.9 64.2 34 1.9 35.4
17:00 1016 30 845 24.95 17.7 63.9 35 2.3 36.2
17:05 1016 30 845 24.95 17.2 62.9 35 1.7 35.1
17:10 1016 30 845 24.95 17 62.5 36 1.9 35.3
17:15 1016 30 845 24.95 16.8 62.3 37 2.3 36.1
17:20 1016 30 845 24.95 16.6 61.9 39 2.9 37.1
17:25 1016 30 845 24.95 16.3 61.3 43 3.7 38.7
17:30 1016 30 845 24.95 16 60.7 44 3.8 38.9
17:35 1016 30 845 24.95 15.8 60.4 45 3.9 39
17:40 1016 30 845 24.95 15.7 60.2 46 4.3 39.7
17:45 1016 30 846 24.98 15.5 59.9 46 4 39.1
17:50 1016 30 846 24.98 15.5 59.9 45 3.7 38.7
17:55 1017 30.03 846 24.98 15.5 59.8 46 3.9 39.1
18:00 1017 30.03 846 24.98 15.4 59.7 46 3.8 38.9
18:05 1017 30.03 846 24.98 15.2 59.4 47 4 39.2
18:10 1017 30.03 846 24.98 15 59 49 4.3 39.8
18:15 1017 30.03 846 24.98 14.9 58.7 50 4.6 40.3
18:20 1017 30.03 846 24.98 14.7 58.4 50 4.4 39.9
18:25 1017 30.03 846 24.98 14.7 58.5 51 4.7 40.5
18:30 1017 30.03 846 24.98 14.7 58.5 51 4.8 40.7
18:35 1017 30.03 846 24.98 14.6 58.3 52 4.8 40.7
18:40 1017 30.03 846 24.98 14.4 57.9 51 4.6 40.3
18:45 1017 30.03 846 24.98 14.3 57.7 51 4.4 40
18:50 1017 30.03 846 24.98 14 57.2 52 4.4 40
18:55 1017 30.03 846 24.98 13.8 56.8 52 4.1 39.5
19:00 1017 30.03 846 24.98 13.6 56.6 53 4.2 39.6
19:05 1017 30.03 847 25.01 13.4 56.2 54 4.5 40
19:10 1017 30.03 847 25.01 13.3 55.9 54 4.2 39.5
19:15 1018 30.06 847 25.01 13.1 55.5 55 4.4 39.9
19:20 1018 30.06 847 25.01 12.8 55.1 57 4.5 40.2
19:25 1018 30.06 847 25.01 12.7 54.8 56 4.2 39.6
19:30 1018 30.06 847 25.01 12.6 54.7 57 4.4 40
19:35 1018 30.06 847 25.01 12.6 54.7 57 4.4 39.9
19:40 1018 30.06 847 25.01 12.6 54.6 58 4.5 40.1
19:45 1018 30.06 847 25.01 12.6 54.6 57 4.3 39.8
19:50 1018 30.06 847 25.01 12.6 54.7 56 4.1 39.3
19:55 1018 30.06 848 25.04 12.7 54.8 55 4 39.2
20:00 1019 30.09 848 25.04 12.7 54.9 55 3.9 39
20:05 1019 30.09 848 25.04 12.7 54.8 55 4 39.1
20:10 1019 30.09 848 25.04 12.5 54.6 56 4 39.2
20:15 1019 30.09 848 25.04 12.4 54.4 55 3.7 38.7
20:20 1019 30.09 848 25.04 12.4 54.3 56 3.9 39
20:25 1019 30.09 848 25.04 12.4 54.4 55 3.8 38.9
20:30 1019 30.09 848 25.04 12.4 54.4 56 4 39.2
20:35 1019 30.09 848 25.04 12.4 54.3 56 3.9 39.1
20:40 1019 30.09 849 25.07 12.4 54.2 56 3.9 39
20:45 1019 30.09 849 25.07 12.4 54.3 56 3.9 39
20:50 1020 30.12 849 25.07 12.4 54.4 56 4 39.3
20:55 1020 30.12 849 25.07 12.4 54.3 55 3.8 38.8
21:00 1020 30.12 849 25.07 12.3 54.1 56 3.8 38.9
21:05 1020 30.12 849 25.07 12.1 53.7 57 3.8 38.8
21:10 1020 30.12 849 25.07 11.8 53.3 58 4 39.2
21:15 1020 30.12 850 25.1 11.5 52.8 60 4 39.2
21:20 1020 30.12 850 25.1 11.3 52.3 59 3.7 38.7
21:25 1021 30.15 850 25.1 11.2 52.2 60 3.8 38.8
21:30 1021 30.15 850 25.1 11.2 52.1 60 3.7 38.7
21:35 1021 30.15 850 25.1 11.1 52 59 3.5 38.3
21:40 1021 30.15 850 25.1 11.2 52.1 59 3.4 38.1
21:45 1021 30.15 850 25.1 11.1 52.1 58 3.3 38
21:50 1021 30.15 850 25.1 11.1 52 58 3.3 38
21:55 1021 30.15 850 25.1 11.1 52 58 3.3 37.9
22:00 1021 30.15 850 25.1 11.1 52 59 3.4 38.1
22:05 1021 30.15 851 25.13 11 51.9 59 3.3 37.9
22:10 1021 30.15 851 25.13 11 51.8 59 3.3 37.9
22:15 1022 30.18 851 25.13 11 51.8 57 2.9 37.3
22:20 1022 30.18 851 25.13 11 51.8 57 3 37.3
22:25 1022 30.18 851 25.13 11 51.7 57 2.9 37.2
22:30 1022 30.18 851 25.13 10.9 51.6 57 2.8 37
22:35 1022 30.18 851 25.13 10.8 51.4 58 2.8 37.1
22:40 1022 30.18 851 25.13 10.7 51.2 58 2.9 37.1
22:45 1022 30.18 851 25.13 10.7 51.2 59 2.9 37.3
22:50 1022 30.18 851 25.13 10.6 51 58 2.6 36.8
22:55 1022 30.18 851 25.13 10.5 51 58 2.6 36.8
23:00 1022 30.18 851 25.13 10.5 50.9 58 2.6 36.6
23:05 1022 30.18 851 25.13 10.5 50.9 58 2.7 36.8
23:10 1022 30.18 852 25.16 10.5 50.9 58 2.7 36.9
23:15 1023 30.21 852 25.16 10.5 50.8 58 2.6 36.8
23:20 1023 30.21 852 25.16 10.5 50.8 59 2.7 36.9
23:25 1023 30.21 852 25.16 10.4 50.7 59 2.8 37.1
23:30 1023 30.21 852 25.16 10.2 50.4 62 3.2 37.8
23:35 1023 30.21 852 25.16 9.6 49.2 65 3.3 38
23:40 1023 30.21 853 25.19 9.2 48.5 69 3.8 38.9
23:45 1024 30.24 853 25.19 8.7 47.6 73 4.1 39.4
23:50 1024 30.24 853 25.19 8.1 46.6 78 4.5 40.1
23:55 1024 30.24 853 25.19 7.2 44.9 82 4.3 39.8
24:00 1024 30.24 854 25.22 6.3 43.4 87 4.3 39.7